sensor_id;sensor_type;location;lat;lon;timestamp;P1;durP1;ratioP1;P2;durP2;ratioP2
37409;SDS011;23275;48.914;12.566;2023-03-02T00:01:25;15.77;;;8.52;;
37409;SDS011;23275;48.914;12.566;2023-03-02T00:03:52;16.95;;;8.45;;
37409;SDS011;23275;48.914;12.566;2023-03-02T00:06:22;16.73;;;8.25;;
37409;SDS011;23275;48.914;12.566;2023-03-02T00:08:49;15.38;;;9.00;;
37409;SDS011;23275;48.914;12.566;2023-03-02T00:11:14;19.20;;;8.93;;
37409;SDS011;23275;48.914;12.566;2023-03-02T00:13:40;15.27;;;8.18;;
37409;SDS011;23275;48.914;12.566;2023-03-02T00:16:06;16.45;;;8.50;;
37409;SDS011;23275;48.914;12.566;2023-03-02T00:18:32;16.33;;;7.38;;
37409;SDS011;23275;48.914;12.566;2023-03-02T00:20:58;14.43;;;8.30;;
37409;SDS011;23275;48.914;12.566;2023-03-02T00:23:23;20.05;;;8.98;;
37409;SDS011;23275;48.914;12.566;2023-03-02T00:25:49;18.05;;;9.00;;
37409;SDS011;23275;48.914;12.566;2023-03-02T00:28:15;16.52;;;8.55;;
37409;SDS011;23275;48.914;12.566;2023-03-02T00:30:40;15.27;;;8.32;;
37409;SDS011;23275;48.914;12.566;2023-03-02T00:33:06;16.55;;;8.65;;
37409;SDS011;23275;48.914;12.566;2023-03-02T00:35:35;18.17;;;8.82;;
37409;SDS011;23275;48.914;12.566;2023-03-02T00:38:05;16.90;;;9.45;;
37409;SDS011;23275;48.914;12.566;2023-03-02T00:40:31;16.85;;;8.75;;
37409;SDS011;23275;48.914;12.566;2023-03-02T00:42:57;18.92;;;9.05;;
37409;SDS011;23275;48.914;12.566;2023-03-02T00:45:23;20.52;;;9.15;;
37409;SDS011;23275;48.914;12.566;2023-03-02T00:47:49;18.23;;;9.25;;
37409;SDS011;23275;48.914;12.566;2023-03-02T00:50:15;17.27;;;8.75;;
37409;SDS011;23275;48.914;12.566;2023-03-02T00:52:40;19.42;;;9.55;;
37409;SDS011;23275;48.914;12.566;2023-03-02T00:55:06;20.52;;;9.35;;
37409;SDS011;23275;48.914;12.566;2023-03-02T00:57:33;19.13;;;9.52;;
37409;SDS011;23275;48.914;12.566;2023-03-02T00:59:58;18.35;;;9.68;;
37409;SDS011;23275;48.914;12.566;2023-03-02T01:02:24;18.38;;;9.75;;
37409;SDS011;23275;48.914;12.566;2023-03-02T01:04:50;19.40;;;10.07;;
37409;SDS011;23275;48.914;12.566;2023-03-02T01:07:17;20.33;;;10.35;;
37409;SDS011;23275;48.914;12.566;2023-03-02T01:09:44;18.30;;;10.00;;
37409;SDS011;23275;48.914;12.566;2023-03-02T01:12:10;19.42;;;9.38;;
37409;SDS011;23275;48.914;12.566;2023-03-02T01:14:40;18.75;;;10.10;;
37409;SDS011;23275;48.914;12.566;2023-03-02T01:17:08;20.45;;;10.00;;
37409;SDS011;23275;48.914;12.566;2023-03-02T01:19:34;21.90;;;11.00;;
37409;SDS011;23275;48.914;12.566;2023-03-02T01:22:00;22.27;;;10.68;;
37409;SDS011;23275;48.914;12.566;2023-03-02T01:24:26;18.23;;;9.95;;
37409;SDS011;23275;48.914;12.566;2023-03-02T01:26:52;18.60;;;10.48;;
37409;SDS011;23275;48.914;12.566;2023-03-02T01:29:18;21.17;;;10.18;;
37409;SDS011;23275;48.914;12.566;2023-03-02T01:31:43;21.63;;;10.48;;
37409;SDS011;23275;48.914;12.566;2023-03-02T01:34:09;18.10;;;10.15;;
37409;SDS011;23275;48.914;12.566;2023-03-02T01:36:34;19.48;;;10.77;;
37409;SDS011;23275;48.914;12.566;2023-03-02T01:39:00;21.90;;;11.35;;
37409;SDS011;23275;48.914;12.566;2023-03-02T01:41:26;22.27;;;10.90;;
37409;SDS011;23275;48.914;12.566;2023-03-02T01:43:52;20.35;;;10.73;;
37409;SDS011;23275;48.914;12.566;2023-03-02T01:46:18;22.02;;;11.13;;
37409;SDS011;23275;48.914;12.566;2023-03-02T01:48:51;21.85;;;10.15;;
37409;SDS011;23275;48.914;12.566;2023-03-02T01:51:29;22.15;;;11.35;;
37409;SDS011;23275;48.914;12.566;2023-03-02T01:54:03;22.27;;;10.98;;
37409;SDS011;23275;48.914;12.566;2023-03-02T01:56:35;22.15;;;10.82;;
37409;SDS011;23275;48.914;12.566;2023-03-02T01:59:04;24.05;;;11.10;;
37409;SDS011;23275;48.914;12.566;2023-03-02T02:01:33;24.23;;;11.98;;
37409;SDS011;23275;48.914;12.566;2023-03-02T02:04:01;20.20;;;10.95;;
37409;SDS011;23275;48.914;12.566;2023-03-02T02:06:30;22.65;;;11.85;;
37409;SDS011;23275;48.914;12.566;2023-03-02T02:09:00;23.23;;;11.13;;
37409;SDS011;23275;48.914;12.566;2023-03-02T02:11:28;20.80;;;11.25;;
37409;SDS011;23275;48.914;12.566;2023-03-02T02:13:55;22.48;;;11.93;;
37409;SDS011;23275;48.914;12.566;2023-03-02T02:16:22;22.00;;;11.25;;
37409;SDS011;23275;48.914;12.566;2023-03-02T02:18:48;25.83;;;11.65;;
37409;SDS011;23275;48.914;12.566;2023-03-02T02:21:14;23.52;;;12.32;;
37409;SDS011;23275;48.914;12.566;2023-03-02T02:29:13;23.45;;;12.07;;
37409;SDS011;23275;48.914;12.566;2023-03-02T02:37:18;25.75;;;11.65;;
37409;SDS011;23275;48.914;12.566;2023-03-02T02:39:57;23.15;;;11.60;;
37409;SDS011;23275;48.914;12.566;2023-03-02T02:42:28;25.63;;;12.07;;
37409;SDS011;23275;48.914;12.566;2023-03-02T02:45:00;25.42;;;11.80;;
37409;SDS011;23275;48.914;12.566;2023-03-02T02:47:29;23.60;;;12.27;;
37409;SDS011;23275;48.914;12.566;2023-03-02T02:49:55;23.25;;;12.65;;
37409;SDS011;23275;48.914;12.566;2023-03-02T02:52:22;24.20;;;12.80;;
37409;SDS011;23275;48.914;12.566;2023-03-02T02:54:51;22.80;;;11.82;;
37409;SDS011;23275;48.914;12.566;2023-03-02T02:57:18;25.85;;;11.73;;
37409;SDS011;23275;48.914;12.566;2023-03-02T02:59:47;23.92;;;12.35;;
37409;SDS011;23275;48.914;12.566;2023-03-02T03:02:20;26.63;;;12.68;;
37409;SDS011;23275;48.914;12.566;2023-03-02T03:04:48;22.80;;;12.45;;
37409;SDS011;23275;48.914;12.566;2023-03-02T03:07:19;27.52;;;12.32;;
37409;SDS011;23275;48.914;12.566;2023-03-02T03:09:47;26.38;;;12.82;;
37409;SDS011;23275;48.914;12.566;2023-03-02T03:12:33;25.77;;;11.07;;
37409;SDS011;23275;48.914;12.566;2023-03-02T03:15:00;25.80;;;13.15;;
37409;SDS011;23275;48.914;12.566;2023-03-02T03:17:26;24.55;;;12.02;;
37409;SDS011;23275;48.914;12.566;2023-03-02T03:19:52;26.15;;;12.50;;
37409;SDS011;23275;48.914;12.566;2023-03-02T03:22:18;23.33;;;11.50;;
37409;SDS011;23275;48.914;12.566;2023-03-02T03:24:44;22.85;;;12.18;;
37409;SDS011;23275;48.914;12.566;2023-03-02T03:27:12;25.70;;;12.90;;
37409;SDS011;23275;48.914;12.566;2023-03-02T03:29:40;24.05;;;12.13;;
37409;SDS011;23275;48.914;12.566;2023-03-02T03:32:12;25.63;;;12.27;;
37409;SDS011;23275;48.914;12.566;2023-03-02T03:34:37;25.85;;;13.43;;
37409;SDS011;23275;48.914;12.566;2023-03-02T03:37:09;24.65;;;12.00;;
37409;SDS011;23275;48.914;12.566;2023-03-02T03:39:36;20.88;;;11.40;;
37409;SDS011;23275;48.914;12.566;2023-03-02T03:42:02;23.48;;;11.57;;
37409;SDS011;23275;48.914;12.566;2023-03-02T03:44:28;23.13;;;11.60;;
37409;SDS011;23275;48.914;12.566;2023-03-02T03:46:54;25.33;;;12.70;;
37409;SDS011;23275;48.914;12.566;2023-03-02T03:49:19;24.75;;;12.60;;
37409;SDS011;23275;48.914;12.566;2023-03-02T03:51:45;20.75;;;11.63;;
37409;SDS011;23275;48.914;12.566;2023-03-02T03:54:11;23.42;;;12.18;;
37409;SDS011;23275;48.914;12.566;2023-03-02T03:56:39;25.23;;;12.82;;
37409;SDS011;23275;48.914;12.566;2023-03-02T03:59:07;22.00;;;11.75;;
37409;SDS011;23275;48.914;12.566;2023-03-02T04:01:44;22.58;;;11.40;;
37409;SDS011;23275;48.914;12.566;2023-03-02T04:06:42;24.55;;;11.98;;
37409;SDS011;23275;48.914;12.566;2023-03-02T04:09:08;25.67;;;12.07;;
37409;SDS011;23275;48.914;12.566;2023-03-02T04:11:36;25.23;;;13.35;;
37409;SDS011;23275;48.914;12.566;2023-03-02T04:14:04;25.58;;;12.93;;
37409;SDS011;23275;48.914;12.566;2023-03-02T04:16:30;27.63;;;13.38;;
37409;SDS011;23275;48.914;12.566;2023-03-02T04:18:56;23.88;;;12.95;;
37409;SDS011;23275;48.914;12.566;2023-03-02T04:21:22;26.17;;;13.40;;
37409;SDS011;23275;48.914;12.566;2023-03-02T04:23:48;25.27;;;13.15;;
37409;SDS011;23275;48.914;12.566;2023-03-02T04:26:14;25.33;;;12.43;;
37409;SDS011;23275;48.914;12.566;2023-03-02T04:28:40;24.25;;;11.73;;
37409;SDS011;23275;48.914;12.566;2023-03-02T04:31:05;23.80;;;12.95;;
37409;SDS011;23275;48.914;12.566;2023-03-02T04:33:31;23.77;;;12.35;;
37409;SDS011;23275;48.914;12.566;2023-03-02T04:35:56;24.52;;;13.27;;
37409;SDS011;23275;48.914;12.566;2023-03-02T04:38:22;23.73;;;12.02;;
37409;SDS011;23275;48.914;12.566;2023-03-02T04:40:48;29.42;;;12.07;;
37409;SDS011;23275;48.914;12.566;2023-03-02T04:43:14;25.23;;;12.50;;
37409;SDS011;23275;48.914;12.566;2023-03-02T04:45:40;24.38;;;12.25;;
37409;SDS011;23275;48.914;12.566;2023-03-02T04:48:06;24.75;;;12.18;;
37409;SDS011;23275;48.914;12.566;2023-03-02T04:50:32;25.08;;;11.93;;
37409;SDS011;23275;48.914;12.566;2023-03-02T04:52:57;26.05;;;12.77;;
37409;SDS011;23275;48.914;12.566;2023-03-02T04:55:24;24.75;;;12.52;;
37409;SDS011;23275;48.914;12.566;2023-03-02T04:57:51;22.55;;;12.57;;
37409;SDS011;23275;48.914;12.566;2023-03-02T05:00:17;23.60;;;11.82;;
37409;SDS011;23275;48.914;12.566;2023-03-02T05:02:44;26.10;;;11.98;;
37409;SDS011;23275;48.914;12.566;2023-03-02T05:05:17;28.73;;;12.55;;
37409;SDS011;23275;48.914;12.566;2023-03-02T05:07:45;24.38;;;11.55;;
37409;SDS011;23275;48.914;12.566;2023-03-02T05:10:12;23.38;;;11.70;;
37409;SDS011;23275;48.914;12.566;2023-03-02T05:12:39;22.35;;;12.10;;
37409;SDS011;23275;48.914;12.566;2023-03-02T05:15:24;28.45;;;12.55;;
37409;SDS011;23275;48.914;12.566;2023-03-02T05:17:56;23.50;;;11.93;;
37409;SDS011;23275;48.914;12.566;2023-03-02T05:20:22;22.02;;;11.43;;
37409;SDS011;23275;48.914;12.566;2023-03-02T05:22:52;24.88;;;12.85;;
37409;SDS011;23275;48.914;12.566;2023-03-02T05:25:19;25.75;;;13.82;;
37409;SDS011;23275;48.914;12.566;2023-03-02T05:27:45;31.25;;;14.93;;
37409;SDS011;23275;48.914;12.566;2023-03-02T05:30:11;26.00;;;13.60;;
37409;SDS011;23275;48.914;12.566;2023-03-02T05:32:37;23.05;;;12.45;;
37409;SDS011;23275;48.914;12.566;2023-03-02T05:35:03;22.27;;;11.65;;
37409;SDS011;23275;48.914;12.566;2023-03-02T05:37:29;22.20;;;11.52;;
37409;SDS011;23275;48.914;12.566;2023-03-02T05:39:55;18.63;;;10.18;;
37409;SDS011;23275;48.914;12.566;2023-03-02T05:42:21;22.13;;;11.63;;
37409;SDS011;23275;48.914;12.566;2023-03-02T05:44:46;22.35;;;11.88;;
37409;SDS011;23275;48.914;12.566;2023-03-02T05:47:12;24.10;;;10.85;;
37409;SDS011;23275;48.914;12.566;2023-03-02T05:49:37;22.42;;;11.07;;
37409;SDS011;23275;48.914;12.566;2023-03-02T05:52:03;22.17;;;11.30;;
37409;SDS011;23275;48.914;12.566;2023-03-02T05:54:28;22.55;;;11.18;;
37409;SDS011;23275;48.914;12.566;2023-03-02T05:56:54;24.58;;;12.68;;
37409;SDS011;23275;48.914;12.566;2023-03-02T05:59:19;22.65;;;11.23;;
37409;SDS011;23275;48.914;12.566;2023-03-02T06:01:45;22.73;;;12.68;;
37409;SDS011;23275;48.914;12.566;2023-03-02T06:04:12;23.40;;;12.38;;
37409;SDS011;23275;48.914;12.566;2023-03-02T06:06:37;25.83;;;13.00;;
37409;SDS011;23275;48.914;12.566;2023-03-02T06:09:03;25.83;;;12.80;;
37409;SDS011;23275;48.914;12.566;2023-03-02T06:11:28;24.08;;;11.90;;
37409;SDS011;23275;48.914;12.566;2023-03-02T06:13:54;25.63;;;12.23;;
37409;SDS011;23275;48.914;12.566;2023-03-02T06:16:20;22.20;;;12.25;;
37409;SDS011;23275;48.914;12.566;2023-03-02T06:18:45;24.13;;;12.55;;
37409;SDS011;23275;48.914;12.566;2023-03-02T06:21:11;24.55;;;12.80;;
37409;SDS011;23275;48.914;12.566;2023-03-02T06:23:36;31.42;;;13.43;;
37409;SDS011;23275;48.914;12.566;2023-03-02T06:26:09;29.90;;;13.43;;
37409;SDS011;23275;48.914;12.566;2023-03-02T06:28:35;24.95;;;12.80;;
37409;SDS011;23275;48.914;12.566;2023-03-02T06:31:01;24.02;;;12.80;;
37409;SDS011;23275;48.914;12.566;2023-03-02T06:33:27;26.65;;;13.40;;
37409;SDS011;23275;48.914;12.566;2023-03-02T06:35:54;28.15;;;13.55;;
37409;SDS011;23275;48.914;12.566;2023-03-02T06:38:20;24.67;;;13.30;;
37409;SDS011;23275;48.914;12.566;2023-03-02T06:40:46;23.13;;;12.98;;
37409;SDS011;23275;48.914;12.566;2023-03-02T06:43:11;24.42;;;12.95;;
37409;SDS011;23275;48.914;12.566;2023-03-02T06:45:37;26.20;;;12.55;;
37409;SDS011;23275;48.914;12.566;2023-03-02T06:48:03;26.13;;;12.68;;
37409;SDS011;23275;48.914;12.566;2023-03-02T06:50:29;25.67;;;12.38;;
37409;SDS011;23275;48.914;12.566;2023-03-02T06:52:55;20.67;;;12.25;;
37409;SDS011;23275;48.914;12.566;2023-03-02T06:55:21;20.17;;;12.18;;
37409;SDS011;23275;48.914;12.566;2023-03-02T06:57:47;21.60;;;11.80;;
37409;SDS011;23275;48.914;12.566;2023-03-02T07:00:13;21.85;;;11.68;;
37409;SDS011;23275;48.914;12.566;2023-03-02T07:02:48;21.15;;;12.10;;
37409;SDS011;23275;48.914;12.566;2023-03-02T07:05:14;18.98;;;11.43;;
37409;SDS011;23275;48.914;12.566;2023-03-02T07:07:40;18.95;;;10.88;;
37409;SDS011;23275;48.914;12.566;2023-03-02T07:10:06;19.73;;;10.70;;
37409;SDS011;23275;48.914;12.566;2023-03-02T07:12:33;20.60;;;10.35;;
37409;SDS011;23275;48.914;12.566;2023-03-02T07:14:58;21.95;;;11.38;;
37409;SDS011;23275;48.914;12.566;2023-03-02T07:17:24;21.67;;;11.15;;
37409;SDS011;23275;48.914;12.566;2023-03-02T07:19:49;19.77;;;10.85;;
37409;SDS011;23275;48.914;12.566;2023-03-02T07:22:15;18.95;;;11.00;;
37409;SDS011;23275;48.914;12.566;2023-03-02T07:24:40;18.05;;;11.32;;
37409;SDS011;23275;48.914;12.566;2023-03-02T07:27:06;18.42;;;11.23;;
37409;SDS011;23275;48.914;12.566;2023-03-02T07:29:32;21.92;;;11.93;;
37409;SDS011;23275;48.914;12.566;2023-03-02T07:31:57;24.55;;;12.60;;
37409;SDS011;23275;48.914;12.566;2023-03-02T07:34:25;19.15;;;11.30;;
37409;SDS011;23275;48.914;12.566;2023-03-02T07:36:52;21.17;;;12.10;;
37409;SDS011;23275;48.914;12.566;2023-03-02T07:39:18;24.45;;;13.23;;
37409;SDS011;23275;48.914;12.566;2023-03-02T07:41:44;21.75;;;12.43;;
37409;SDS011;23275;48.914;12.566;2023-03-02T07:44:09;20.73;;;12.90;;
37409;SDS011;23275;48.914;12.566;2023-03-02T07:46:35;21.48;;;11.88;;
37409;SDS011;23275;48.914;12.566;2023-03-02T07:49:01;20.23;;;12.45;;
37409;SDS011;23275;48.914;12.566;2023-03-02T07:51:26;21.95;;;12.63;;
37409;SDS011;23275;48.914;12.566;2023-03-02T07:53:52;20.02;;;11.98;;
37409;SDS011;23275;48.914;12.566;2023-03-02T07:56:18;21.08;;;12.32;;
37409;SDS011;23275;48.914;12.566;2023-03-02T07:58:44;22.75;;;13.20;;
37409;SDS011;23275;48.914;12.566;2023-03-02T08:01:10;22.23;;;11.50;;
37409;SDS011;23275;48.914;12.566;2023-03-02T08:03:36;23.35;;;12.38;;
37409;SDS011;23275;48.914;12.566;2023-03-02T08:06:06;19.95;;;12.02;;
37409;SDS011;23275;48.914;12.566;2023-03-02T08:08:33;19.67;;;13.23;;
37409;SDS011;23275;48.914;12.566;2023-03-02T08:11:06;20.83;;;12.50;;
37409;SDS011;23275;48.914;12.566;2023-03-02T08:13:34;25.02;;;12.73;;
37409;SDS011;23275;48.914;12.566;2023-03-02T08:16:01;18.75;;;12.43;;
37409;SDS011;23275;48.914;12.566;2023-03-02T08:18:28;20.38;;;11.55;;
37409;SDS011;23275;48.914;12.566;2023-03-02T08:20:54;22.23;;;11.45;;
37409;SDS011;23275;48.914;12.566;2023-03-02T08:23:20;19.40;;;11.73;;
37409;SDS011;23275;48.914;12.566;2023-03-02T08:25:46;25.73;;;12.10;;
37409;SDS011;23275;48.914;12.566;2023-03-02T08:28:12;19.92;;;11.00;;
37409;SDS011;23275;48.914;12.566;2023-03-02T08:30:38;19.98;;;10.90;;
37409;SDS011;23275;48.914;12.566;2023-03-02T08:33:03;20.60;;;10.45;;
37409;SDS011;23275;48.914;12.566;2023-03-02T08:35:29;18.45;;;10.38;;
37409;SDS011;23275;48.914;12.566;2023-03-02T08:37:54;17.40;;;10.25;;
37409;SDS011;23275;48.914;12.566;2023-03-02T08:40:20;18.35;;;10.98;;
37409;SDS011;23275;48.914;12.566;2023-03-02T08:42:45;17.20;;;10.48;;
37409;SDS011;23275;48.914;12.566;2023-03-02T08:45:12;21.50;;;10.50;;
37409;SDS011;23275;48.914;12.566;2023-03-02T08:47:37;17.67;;;10.00;;
37409;SDS011;23275;48.914;12.566;2023-03-02T08:50:03;17.52;;;9.25;;
37409;SDS011;23275;48.914;12.566;2023-03-02T08:52:31;20.63;;;10.27;;
37409;SDS011;23275;48.914;12.566;2023-03-02T08:54:58;18.05;;;10.10;;
37409;SDS011;23275;48.914;12.566;2023-03-02T08:57:24;17.38;;;10.07;;
37409;SDS011;23275;48.914;12.566;2023-03-02T08:59:49;14.18;;;9.98;;
37409;SDS011;23275;48.914;12.566;2023-03-02T09:02:16;14.18;;;9.73;;
37409;SDS011;23275;48.914;12.566;2023-03-02T09:04:41;18.90;;;10.27;;
37409;SDS011;23275;48.914;12.566;2023-03-02T09:07:07;16.23;;;10.27;;
37409;SDS011;23275;48.914;12.566;2023-03-02T09:09:33;20.42;;;11.02;;
37409;SDS011;23275;48.914;12.566;2023-03-02T09:11:59;16.75;;;10.80;;
37409;SDS011;23275;48.914;12.566;2023-03-02T09:14:24;16.58;;;10.18;;
37409;SDS011;23275;48.914;12.566;2023-03-02T09:16:51;19.17;;;11.15;;
37409;SDS011;23275;48.914;12.566;2023-03-02T09:19:17;16.48;;;10.90;;
37409;SDS011;23275;48.914;12.566;2023-03-02T09:21:44;20.20;;;11.23;;
37409;SDS011;23275;48.914;12.566;2023-03-02T09:24:09;16.90;;;11.27;;
37409;SDS011;23275;48.914;12.566;2023-03-02T09:26:35;16.67;;;9.95;;
37409;SDS011;23275;48.914;12.566;2023-03-02T09:29:03;18.70;;;11.07;;
37409;SDS011;23275;48.914;12.566;2023-03-02T09:31:30;19.67;;;11.55;;
37409;SDS011;23275;48.914;12.566;2023-03-02T09:33:56;18.02;;;10.93;;
37409;SDS011;23275;48.914;12.566;2023-03-02T09:36:22;14.48;;;10.45;;
37409;SDS011;23275;48.914;12.566;2023-03-02T09:38:49;17.35;;;10.00;;
37409;SDS011;23275;48.914;12.566;2023-03-02T09:46:40;20.70;;;11.30;;
37409;SDS011;23275;48.914;12.566;2023-03-02T09:54:59;17.60;;;10.38;;
37409;SDS011;23275;48.914;12.566;2023-03-02T09:57:39;17.67;;;9.05;;
37409;SDS011;23275;48.914;12.566;2023-03-02T10:00:06;23.48;;;9.57;;
37409;SDS011;23275;48.914;12.566;2023-03-02T10:02:45;18.70;;;10.23;;
37409;SDS011;23275;48.914;12.566;2023-03-02T10:05:23;17.15;;;9.93;;
37409;SDS011;23275;48.914;12.566;2023-03-02T10:07:53;14.75;;;9.90;;
37409;SDS011;23275;48.914;12.566;2023-03-02T10:10:24;14.38;;;8.25;;
37409;SDS011;23275;48.914;12.566;2023-03-02T10:13:04;15.25;;;8.65;;
37409;SDS011;23275;48.914;12.566;2023-03-02T10:21:17;15.57;;;8.85;;
37409;SDS011;23275;48.914;12.566;2023-03-02T10:26:46;13.02;;;8.52;;
37409;SDS011;23275;48.914;12.566;2023-03-02T10:31:43;15.05;;;9.00;;
37409;SDS011;23275;48.914;12.566;2023-03-02T10:34:11;14.43;;;7.85;;
37409;SDS011;23275;48.914;12.566;2023-03-02T10:36:38;14.25;;;8.82;;
37409;SDS011;23275;48.914;12.566;2023-03-02T10:39:09;14.40;;;8.73;;
37409;SDS011;23275;48.914;12.566;2023-03-02T10:41:39;13.00;;;8.00;;
37409;SDS011;23275;48.914;12.566;2023-03-02T10:44:20;14.32;;;7.97;;
37409;SDS011;23275;48.914;12.566;2023-03-02T10:46:52;13.55;;;8.05;;
37409;SDS011;23275;48.914;12.566;2023-03-02T10:49:28;17.00;;;8.73;;
37409;SDS011;23275;48.914;12.566;2023-03-02T10:54:23;13.77;;;8.68;;
37409;SDS011;23275;48.914;12.566;2023-03-02T10:56:50;15.27;;;8.40;;
37409;SDS011;23275;48.914;12.566;2023-03-02T11:02:00;20.42;;;9.25;;
37409;SDS011;23275;48.914;12.566;2023-03-02T11:04:37;16.05;;;8.80;;
37409;SDS011;23275;48.914;12.566;2023-03-02T11:07:06;15.07;;;9.95;;
37409;SDS011;23275;48.914;12.566;2023-03-02T11:12:21;16.52;;;10.50;;
37409;SDS011;23275;48.914;12.566;2023-03-02T11:14:47;15.65;;;9.93;;
37409;SDS011;23275;48.914;12.566;2023-03-02T11:17:29;19.05;;;10.82;;
37409;SDS011;23275;48.914;12.566;2023-03-02T11:19:57;15.10;;;8.60;;
37409;SDS011;23275;48.914;12.566;2023-03-02T11:22:31;17.38;;;10.55;;
37409;SDS011;23275;48.914;12.566;2023-03-02T11:25:11;17.63;;;11.05;;
37409;SDS011;23275;48.914;12.566;2023-03-02T11:27:56;19.10;;;10.57;;
37409;SDS011;23275;48.914;12.566;2023-03-02T11:30:29;23.17;;;12.00;;
37409;SDS011;23275;48.914;12.566;2023-03-02T11:33:08;21.80;;;12.43;;
37409;SDS011;23275;48.914;12.566;2023-03-02T11:35:43;19.17;;;12.27;;
37409;SDS011;23275;48.914;12.566;2023-03-02T11:38:16;17.38;;;9.88;;
37409;SDS011;23275;48.914;12.566;2023-03-02T11:40:48;23.10;;;11.35;;
37409;SDS011;23275;48.914;12.566;2023-03-02T11:43:18;24.35;;;11.85;;
37409;SDS011;23275;48.914;12.566;2023-03-02T11:45:45;19.60;;;10.60;;
37409;SDS011;23275;48.914;12.566;2023-03-02T11:51:53;21.13;;;11.70;;
37409;SDS011;23275;48.914;12.566;2023-03-02T11:56:19;16.23;;;10.52;;
37409;SDS011;23275;48.914;12.566;2023-03-02T11:58:47;21.13;;;11.15;;
37409;SDS011;23275;48.914;12.566;2023-03-02T12:01:21;19.63;;;12.38;;
37409;SDS011;23275;48.914;12.566;2023-03-02T12:03:49;21.38;;;11.70;;
37409;SDS011;23275;48.914;12.566;2023-03-02T12:08:49;18.92;;;11.18;;
37409;SDS011;23275;48.914;12.566;2023-03-02T12:13:44;21.33;;;10.52;;
37409;SDS011;23275;48.914;12.566;2023-03-02T12:16:23;18.23;;;9.32;;
37409;SDS011;23275;48.914;12.566;2023-03-02T12:19:25;22.02;;;12.38;;
37409;SDS011;23275;48.914;12.566;2023-03-02T12:21:56;19.42;;;9.73;;
37409;SDS011;23275;48.914;12.566;2023-03-02T12:24:31;18.90;;;11.65;;
37409;SDS011;23275;48.914;12.566;2023-03-02T12:26:59;17.25;;;11.27;;
37409;SDS011;23275;48.914;12.566;2023-03-02T12:29:38;22.17;;;12.20;;
37409;SDS011;23275;48.914;12.566;2023-03-02T12:32:10;24.52;;;13.00;;
37409;SDS011;23275;48.914;12.566;2023-03-02T12:34:52;23.13;;;13.13;;
37409;SDS011;23275;48.914;12.566;2023-03-02T12:37:23;20.70;;;11.97;;
37409;SDS011;23275;48.914;12.566;2023-03-02T12:42:41;22.80;;;13.02;;
37409;SDS011;23275;48.914;12.566;2023-03-02T12:51:13;23.85;;;13.23;;
37409;SDS011;23275;48.914;12.566;2023-03-02T12:53:46;22.17;;;12.13;;
37409;SDS011;23275;48.914;12.566;2023-03-02T12:56:24;22.20;;;11.93;;
37409;SDS011;23275;48.914;12.566;2023-03-02T12:58:50;21.87;;;10.90;;
37409;SDS011;23275;48.914;12.566;2023-03-02T13:01:21;18.35;;;11.07;;
37409;SDS011;23275;48.914;12.566;2023-03-02T13:03:48;19.15;;;9.77;;
37409;SDS011;23275;48.914;12.566;2023-03-02T13:06:15;20.20;;;10.48;;
37409;SDS011;23275;48.914;12.566;2023-03-02T13:08:42;22.08;;;10.27;;
37409;SDS011;23275;48.914;12.566;2023-03-02T13:11:10;21.88;;;9.80;;
37409;SDS011;23275;48.914;12.566;2023-03-02T13:13:42;19.13;;;9.90;;
37409;SDS011;23275;48.914;12.566;2023-03-02T13:18:46;21.02;;;10.40;;
37409;SDS011;23275;48.914;12.566;2023-03-02T13:21:14;24.13;;;11.73;;
37409;SDS011;23275;48.914;12.566;2023-03-02T13:23:46;21.33;;;10.75;;
37409;SDS011;23275;48.914;12.566;2023-03-02T13:26:25;23.60;;;11.15;;
37409;SDS011;23275;48.914;12.566;2023-03-02T13:31:47;22.77;;;10.25;;
37409;SDS011;23275;48.914;12.566;2023-03-02T13:36:48;19.00;;;9.93;;
37409;SDS011;23275;48.914;12.566;2023-03-02T13:39:17;18.90;;;10.05;;
37409;SDS011;23275;48.914;12.566;2023-03-02T13:41:51;19.75;;;10.60;;
37409;SDS011;23275;48.914;12.566;2023-03-02T13:44:20;14.77;;;8.43;;
37409;SDS011;23275;48.914;12.566;2023-03-02T13:46:51;16.33;;;8.57;;
37409;SDS011;23275;48.914;12.566;2023-03-02T13:49:33;23.65;;;8.80;;
37409;SDS011;23275;48.914;12.566;2023-03-02T13:52:03;21.40;;;9.15;;
37409;SDS011;23275;48.914;12.566;2023-03-02T13:54:35;18.55;;;8.70;;
37409;SDS011;23275;48.914;12.566;2023-03-02T13:57:02;25.17;;;9.85;;
37409;SDS011;23275;48.914;12.566;2023-03-02T13:59:30;18.58;;;9.20;;
37409;SDS011;23275;48.914;12.566;2023-03-02T14:01:57;16.30;;;8.27;;
37409;SDS011;23275;48.914;12.566;2023-03-02T14:04:23;16.60;;;9.63;;
37409;SDS011;23275;48.914;12.566;2023-03-02T14:06:49;20.95;;;9.27;;
37409;SDS011;23275;48.914;12.566;2023-03-02T14:09:16;18.58;;;8.95;;
37409;SDS011;23275;48.914;12.566;2023-03-02T14:11:49;20.30;;;8.90;;
37409;SDS011;23275;48.914;12.566;2023-03-02T14:14:18;17.70;;;7.80;;
37409;SDS011;23275;48.914;12.566;2023-03-02T14:16:46;16.85;;;7.22;;
37409;SDS011;23275;48.914;12.566;2023-03-02T14:19:12;16.90;;;7.78;;
37409;SDS011;23275;48.914;12.566;2023-03-02T14:21:42;19.60;;;7.83;;
37409;SDS011;23275;48.914;12.566;2023-03-02T14:24:08;19.90;;;8.48;;
37409;SDS011;23275;48.914;12.566;2023-03-02T14:26:35;17.17;;;8.20;;
37409;SDS011;23275;48.914;12.566;2023-03-02T14:29:27;15.02;;;7.75;;
37409;SDS011;23275;48.914;12.566;2023-03-02T14:31:55;19.88;;;8.18;;
37409;SDS011;23275;48.914;12.566;2023-03-02T14:34:27;15.88;;;8.77;;
37409;SDS011;23275;48.914;12.566;2023-03-02T14:36:54;17.25;;;7.72;;
37409;SDS011;23275;48.914;12.566;2023-03-02T14:39:23;23.73;;;7.65;;
37409;SDS011;23275;48.914;12.566;2023-03-02T14:42:03;13.98;;;8.10;;
37409;SDS011;23275;48.914;12.566;2023-03-02T14:44:33;14.68;;;7.80;;
37409;SDS011;23275;48.914;12.566;2023-03-02T14:46:59;17.65;;;8.85;;
37409;SDS011;23275;48.914;12.566;2023-03-02T14:49:24;21.02;;;10.73;;
37409;SDS011;23275;48.914;12.566;2023-03-02T14:51:58;20.55;;;9.63;;
37409;SDS011;23275;48.914;12.566;2023-03-02T14:54:41;20.80;;;9.07;;
37409;SDS011;23275;48.914;12.566;2023-03-02T14:57:18;22.70;;;9.05;;
37409;SDS011;23275;48.914;12.566;2023-03-02T14:59:51;17.75;;;9.63;;
37409;SDS011;23275;48.914;12.566;2023-03-02T15:02:18;19.15;;;10.07;;
37409;SDS011;23275;48.914;12.566;2023-03-02T15:04:46;21.85;;;9.85;;
37409;SDS011;23275;48.914;12.566;2023-03-02T15:07:13;19.67;;;9.20;;
37409;SDS011;23275;48.914;12.566;2023-03-02T15:09:41;20.60;;;9.43;;
37409;SDS011;23275;48.914;12.566;2023-03-02T15:12:08;17.98;;;9.43;;
37409;SDS011;23275;48.914;12.566;2023-03-02T15:14:34;16.38;;;9.25;;
37409;SDS011;23275;48.914;12.566;2023-03-02T15:17:00;16.95;;;9.52;;
37409;SDS011;23275;48.914;12.566;2023-03-02T15:19:26;22.92;;;10.30;;
37409;SDS011;23275;48.914;12.566;2023-03-02T15:21:51;17.35;;;10.68;;
37409;SDS011;23275;48.914;12.566;2023-03-02T15:24:17;18.90;;;9.40;;
37409;SDS011;23275;48.914;12.566;2023-03-02T15:26:47;20.40;;;11.07;;
37409;SDS011;23275;48.914;12.566;2023-03-02T15:29:13;20.08;;;10.88;;
37409;SDS011;23275;48.914;12.566;2023-03-02T15:31:38;19.65;;;10.45;;